sensor_id;sensor_type;location;lat;lon;timestamp;P1;durP1;ratioP1;P2;durP2;ratioP2
42602;SDS011;28233;55.748;48.752;2023-02-14T00:00:03;6.65;;;3.55;;
42602;SDS011;28233;55.748;48.752;2023-02-14T00:02:07;19.02;;;5.07;;
42602;SDS011;28233;55.748;48.752;2023-02-14T00:04:10;6.53;;;3.47;;
42602;SDS011;28233;55.748;48.752;2023-02-14T00:06:13;8.25;;;4.68;;
42602;SDS011;28233;55.748;48.752;2023-02-14T00:08:16;6.82;;;4.15;;
42602;SDS011;28233;55.748;48.752;2023-02-14T00:10:18;6.15;;;4.68;;
42602;SDS011;28233;55.748;48.752;2023-02-14T00:12:21;6.45;;;4.15;;
42602;SDS011;28233;55.748;48.752;2023-02-14T00:14:24;5.80;;;3.50;;
42602;SDS011;28233;55.748;48.752;2023-02-14T00:16:45;7.43;;;3.77;;
42602;SDS011;28233;55.748;48.752;2023-02-14T00:18:48;7.17;;;4.27;;
42602;SDS011;28233;55.748;48.752;2023-02-14T00:21:06;6.72;;;3.72;;
42602;SDS011;28233;55.748;48.752;2023-02-14T00:23:08;5.18;;;3.38;;
42602;SDS011;28233;55.748;48.752;2023-02-14T00:25:11;6.68;;;3.95;;
42602;SDS011;28233;55.748;48.752;2023-02-14T00:27:14;5.40;;;4.07;;
42602;SDS011;28233;55.748;48.752;2023-02-14T00:29:18;9.07;;;3.70;;
42602;SDS011;28233;55.748;48.752;2023-02-14T00:31:22;9.00;;;3.97;;
42602;SDS011;28233;55.748;48.752;2023-02-14T00:33:25;5.23;;;3.33;;
42602;SDS011;28233;55.748;48.752;2023-02-14T00:35:28;7.10;;;3.50;;
42602;SDS011;28233;55.748;48.752;2023-02-14T00:37:31;9.70;;;4.23;;
42602;SDS011;28233;55.748;48.752;2023-02-14T00:39:34;6.07;;;4.30;;
42602;SDS011;28233;55.748;48.752;2023-02-14T00:41:37;7.97;;;3.83;;
42602;SDS011;28233;55.748;48.752;2023-02-14T00:43:40;6.40;;;3.23;;
42602;SDS011;28233;55.748;48.752;2023-02-14T00:45:43;6.20;;;2.60;;
42602;SDS011;28233;55.748;48.752;2023-02-14T00:47:45;4.20;;;3.33;;
42602;SDS011;28233;55.748;48.752;2023-02-14T00:49:48;8.10;;;3.83;;
42602;SDS011;28233;55.748;48.752;2023-02-14T00:51:51;6.13;;;3.50;;
42602;SDS011;28233;55.748;48.752;2023-02-14T00:53:53;7.83;;;3.53;;
42602;SDS011;28233;55.748;48.752;2023-02-14T00:55:56;4.35;;;3.28;;
42602;SDS011;28233;55.748;48.752;2023-02-14T00:57:59;6.80;;;3.47;;
42602;SDS011;28233;55.748;48.752;2023-02-14T01:00:02;6.43;;;3.77;;
42602;SDS011;28233;55.748;48.752;2023-02-14T01:02:06;6.63;;;3.47;;
42602;SDS011;28233;55.748;48.752;2023-02-14T01:04:08;7.03;;;4.07;;
42602;SDS011;28233;55.748;48.752;2023-02-14T01:06:11;4.80;;;2.50;;
42602;SDS011;28233;55.748;48.752;2023-02-14T01:08:14;5.33;;;3.17;;
42602;SDS011;28233;55.748;48.752;2023-02-14T01:10:17;5.97;;;3.00;;
42602;SDS011;28233;55.748;48.752;2023-02-14T01:12:20;6.90;;;3.03;;
42602;SDS011;28233;55.748;48.752;2023-02-14T01:14:22;3.90;;;2.37;;
42602;SDS011;28233;55.748;48.752;2023-02-14T01:16:26;4.77;;;2.80;;
42602;SDS011;28233;55.748;48.752;2023-02-14T01:18:30;4.10;;;2.70;;
42602;SDS011;28233;55.748;48.752;2023-02-14T01:20:33;6.07;;;3.33;;
42602;SDS011;28233;55.748;48.752;2023-02-14T01:22:36;5.93;;;3.40;;
42602;SDS011;28233;55.748;48.752;2023-02-14T01:24:39;5.60;;;2.43;;
42602;SDS011;28233;55.748;48.752;2023-02-14T01:26:42;4.93;;;2.67;;
42602;SDS011;28233;55.748;48.752;2023-02-14T01:28:45;6.13;;;2.77;;
42602;SDS011;28233;55.748;48.752;2023-02-14T01:30:48;5.50;;;2.73;;
42602;SDS011;28233;55.748;48.752;2023-02-14T01:32:52;4.33;;;3.40;;
42602;SDS011;28233;55.748;48.752;2023-02-14T01:34:55;16.30;;;3.90;;
42602;SDS011;28233;55.748;48.752;2023-02-14T01:36:58;5.07;;;3.23;;
42602;SDS011;28233;55.748;48.752;2023-02-14T01:39:02;4.57;;;2.60;;
42602;SDS011;28233;55.748;48.752;2023-02-14T01:41:07;4.63;;;2.80;;
42602;SDS011;28233;55.748;48.752;2023-02-14T01:43:13;5.47;;;2.50;;
42602;SDS011;28233;55.748;48.752;2023-02-14T01:45:20;4.87;;;2.87;;
42602;SDS011;28233;55.748;48.752;2023-02-14T01:47:27;5.73;;;3.23;;
42602;SDS011;28233;55.748;48.752;2023-02-14T01:49:38;6.10;;;3.00;;
42602;SDS011;28233;55.748;48.752;2023-02-14T01:54:15;5.10;;;3.07;;
42602;SDS011;28233;55.748;48.752;2023-02-14T01:56:24;3.67;;;2.47;;
42602;SDS011;28233;55.748;48.752;2023-02-14T01:58:32;5.27;;;3.13;;
42602;SDS011;28233;55.748;48.752;2023-02-14T02:00:37;4.27;;;3.03;;
42602;SDS011;28233;55.748;48.752;2023-02-14T02:03:01;4.67;;;3.17;;
42602;SDS011;28233;55.748;48.752;2023-02-14T02:05:06;5.53;;;3.10;;
42602;SDS011;28233;55.748;48.752;2023-02-14T02:07:10;19.13;;;3.63;;
42602;SDS011;28233;55.748;48.752;2023-02-14T02:11:26;5.77;;;3.03;;
42602;SDS011;28233;55.748;48.752;2023-02-14T02:13:29;4.57;;;2.87;;
42602;SDS011;28233;55.748;48.752;2023-02-14T02:15:34;15.13;;;3.10;;
42602;SDS011;28233;55.748;48.752;2023-02-14T02:18:50;4.87;;;3.00;;
42602;SDS011;28233;55.748;48.752;2023-02-14T02:23:07;4.57;;;2.07;;
42602;SDS011;28233;55.748;48.752;2023-02-14T02:46:15;8.03;;;3.43;;
42602;SDS011;28233;55.748;48.752;2023-02-14T02:51:18;2.27;;;2.00;;
42602;SDS011;28233;55.748;48.752;2023-02-14T02:53:56;4.57;;;2.30;;
42602;SDS011;28233;55.748;48.752;2023-02-14T02:56:10;4.33;;;2.70;;
42602;SDS011;28233;55.748;48.752;2023-02-14T02:58:38;8.80;;;3.03;;
42602;SDS011;28233;55.748;48.752;2023-02-14T03:00:44;5.37;;;2.70;;
42602;SDS011;28233;55.748;48.752;2023-02-14T03:02:50;5.37;;;2.93;;
42602;SDS011;28233;55.748;48.752;2023-02-14T03:05:15;3.60;;;2.57;;
42602;SDS011;28233;55.748;48.752;2023-02-14T03:11:45;4.53;;;2.50;;
42602;SDS011;28233;55.748;48.752;2023-02-14T03:14:03;3.43;;;2.20;;
42602;SDS011;28233;55.748;48.752;2023-02-14T03:16:29;4.50;;;2.90;;
42602;SDS011;28233;55.748;48.752;2023-02-14T03:18:54;5.17;;;2.60;;
42602;SDS011;28233;55.748;48.752;2023-02-14T03:21:21;4.22;;;2.25;;
42602;SDS011;28233;55.748;48.752;2023-02-14T03:23:38;5.50;;;2.63;;
42602;SDS011;28233;55.748;48.752;2023-02-14T03:28:12;3.87;;;2.60;;
42602;SDS011;28233;55.748;48.752;2023-02-14T03:33:19;5.87;;;3.30;;
42602;SDS011;28233;55.748;48.752;2023-02-14T03:35:42;6.37;;;2.30;;
42602;SDS011;28233;55.748;48.752;2023-02-14T03:37:48;6.00;;;2.90;;
42602;SDS011;28233;55.748;48.752;2023-02-14T03:40:55;5.43;;;3.20;;
42602;SDS011;28233;55.748;48.752;2023-02-14T03:45:21;4.77;;;2.50;;
42602;SDS011;28233;55.748;48.752;2023-02-14T03:47:31;2.97;;;2.23;;
42602;SDS011;28233;55.748;48.752;2023-02-14T03:49:40;4.73;;;2.47;;
42602;SDS011;28233;55.748;48.752;2023-02-14T03:51:50;5.15;;;2.72;;
42602;SDS011;28233;55.748;48.752;2023-02-14T03:53:56;4.87;;;2.70;;
42602;SDS011;28233;55.748;48.752;2023-02-14T03:58:22;4.80;;;3.00;;
42602;SDS011;28233;55.748;48.752;2023-02-14T04:00:29;3.88;;;2.33;;
42602;SDS011;28233;55.748;48.752;2023-02-14T04:02:45;4.37;;;2.13;;
42602;SDS011;28233;55.748;48.752;2023-02-14T04:04:50;4.87;;;2.93;;
42602;SDS011;28233;55.748;48.752;2023-02-14T04:06:54;5.23;;;2.13;;
42602;SDS011;28233;55.748;48.752;2023-02-14T04:08:57;3.27;;;2.10;;
42602;SDS011;28233;55.748;48.752;2023-02-14T04:11:00;6.13;;;3.20;;
42602;SDS011;28233;55.748;48.752;2023-02-14T04:13:05;5.90;;;2.70;;
42602;SDS011;28233;55.748;48.752;2023-02-14T04:15:07;5.60;;;3.20;;
42602;SDS011;28233;55.748;48.752;2023-02-14T04:17:11;5.63;;;2.80;;
42602;SDS011;28233;55.748;48.752;2023-02-14T04:19:32;3.80;;;2.50;;
42602;SDS011;28233;55.748;48.752;2023-02-14T04:21:35;3.40;;;2.27;;
42602;SDS011;28233;55.748;48.752;2023-02-14T04:23:37;4.30;;;2.63;;
42602;SDS011;28233;55.748;48.752;2023-02-14T04:25:40;3.27;;;1.70;;
42602;SDS011;28233;55.748;48.752;2023-02-14T04:27:44;4.43;;;2.80;;
42602;SDS011;28233;55.748;48.752;2023-02-14T04:29:47;2.83;;;2.30;;
42602;SDS011;28233;55.748;48.752;2023-02-14T04:31:51;3.67;;;1.97;;
42602;SDS011;28233;55.748;48.752;2023-02-14T04:33:54;5.63;;;2.10;;
42602;SDS011;28233;55.748;48.752;2023-02-14T04:35:57;4.30;;;2.20;;
42602;SDS011;28233;55.748;48.752;2023-02-14T04:38:01;4.50;;;2.20;;
42602;SDS011;28233;55.748;48.752;2023-02-14T04:40:04;6.23;;;2.67;;
42602;SDS011;28233;55.748;48.752;2023-02-14T04:42:08;6.33;;;3.00;;
42602;SDS011;28233;55.748;48.752;2023-02-14T04:44:11;7.72;;;3.08;;
42602;SDS011;28233;55.748;48.752;2023-02-14T04:46:13;3.57;;;2.53;;
42602;SDS011;28233;55.748;48.752;2023-02-14T04:48:16;8.43;;;3.17;;
42602;SDS011;28233;55.748;48.752;2023-02-14T04:50:19;5.00;;;2.50;;
42602;SDS011;28233;55.748;48.752;2023-02-14T04:52:21;5.33;;;2.17;;
42602;SDS011;28233;55.748;48.752;2023-02-14T04:54:24;4.63;;;2.53;;
42602;SDS011;28233;55.748;48.752;2023-02-14T04:56:27;3.57;;;2.40;;
42602;SDS011;28233;55.748;48.752;2023-02-14T04:58:29;4.63;;;3.13;;
42602;SDS011;28233;55.748;48.752;2023-02-14T05:00:32;12.30;;;3.40;;
42602;SDS011;28233;55.748;48.752;2023-02-14T05:02:35;6.67;;;3.20;;
42602;SDS011;28233;55.748;48.752;2023-02-14T05:04:38;4.60;;;3.30;;
42602;SDS011;28233;55.748;48.752;2023-02-14T05:06:40;6.33;;;3.73;;
42602;SDS011;28233;55.748;48.752;2023-02-14T05:08:43;5.27;;;2.50;;
42602;SDS011;28233;55.748;48.752;2023-02-14T05:10:46;5.97;;;2.83;;
42602;SDS011;28233;55.748;48.752;2023-02-14T05:12:48;4.47;;;2.93;;
42602;SDS011;28233;55.748;48.752;2023-02-14T05:14:51;4.57;;;3.10;;
42602;SDS011;28233;55.748;48.752;2023-02-14T05:16:54;6.13;;;2.77;;
42602;SDS011;28233;55.748;48.752;2023-02-14T05:18:56;4.50;;;2.70;;
42602;SDS011;28233;55.748;48.752;2023-02-14T05:20:59;5.63;;;3.43;;
42602;SDS011;28233;55.748;48.752;2023-02-14T05:23:02;8.20;;;3.07;;
42602;SDS011;28233;55.748;48.752;2023-02-14T05:25:06;4.80;;;2.87;;
42602;SDS011;28233;55.748;48.752;2023-02-14T05:27:09;5.90;;;2.60;;
42602;SDS011;28233;55.748;48.752;2023-02-14T05:29:13;3.87;;;2.60;;
42602;SDS011;28233;55.748;48.752;2023-02-14T05:31:15;5.33;;;3.87;;
42602;SDS011;28233;55.748;48.752;2023-02-14T05:33:18;3.73;;;2.97;;
42602;SDS011;28233;55.748;48.752;2023-02-14T05:35:21;8.13;;;2.80;;
42602;SDS011;28233;55.748;48.752;2023-02-14T05:37:24;4.57;;;2.90;;
42602;SDS011;28233;55.748;48.752;2023-02-14T05:39:26;5.67;;;3.47;;
42602;SDS011;28233;55.748;48.752;2023-02-14T05:41:29;7.13;;;3.53;;
42602;SDS011;28233;55.748;48.752;2023-02-14T05:43:32;5.67;;;3.60;;
42602;SDS011;28233;55.748;48.752;2023-02-14T05:45:34;4.70;;;3.10;;
42602;SDS011;28233;55.748;48.752;2023-02-14T05:47:37;9.47;;;3.93;;
42602;SDS011;28233;55.748;48.752;2023-02-14T05:49:41;5.10;;;3.43;;
42602;SDS011;28233;55.748;48.752;2023-02-14T05:51:45;6.87;;;4.03;;
42602;SDS011;28233;55.748;48.752;2023-02-14T05:53:48;6.27;;;3.93;;
42602;SDS011;28233;55.748;48.752;2023-02-14T05:55:50;3.60;;;2.53;;
42602;SDS011;28233;55.748;48.752;2023-02-14T05:57:53;5.53;;;3.00;;
42602;SDS011;28233;55.748;48.752;2023-02-14T05:59:55;4.73;;;3.10;;
42602;SDS011;28233;55.748;48.752;2023-02-14T06:01:58;4.37;;;2.80;;
42602;SDS011;28233;55.748;48.752;2023-02-14T06:04:01;4.40;;;2.83;;
42602;SDS011;28233;55.748;48.752;2023-02-14T06:06:04;6.30;;;2.42;;
42602;SDS011;28233;55.748;48.752;2023-02-14T06:08:07;5.10;;;3.30;;
42602;SDS011;28233;55.748;48.752;2023-02-14T06:10:10;6.82;;;3.55;;
42602;SDS011;28233;55.748;48.752;2023-02-14T06:12:13;5.05;;;3.30;;
42602;SDS011;28233;55.748;48.752;2023-02-14T06:14:16;4.78;;;2.70;;
42602;SDS011;28233;55.748;48.752;2023-02-14T06:16:19;5.85;;;3.20;;
42602;SDS011;28233;55.748;48.752;2023-02-14T06:18:22;4.47;;;2.90;;
42602;SDS011;28233;55.748;48.752;2023-02-14T06:20:28;5.63;;;3.72;;
42602;SDS011;28233;55.748;48.752;2023-02-14T06:22:32;5.57;;;2.97;;
42602;SDS011;28233;55.748;48.752;2023-02-14T06:24:35;4.63;;;3.15;;
42602;SDS011;28233;55.748;48.752;2023-02-14T06:26:38;5.10;;;2.80;;
42602;SDS011;28233;55.748;48.752;2023-02-14T06:28:40;7.70;;;3.83;;
42602;SDS011;28233;55.748;48.752;2023-02-14T06:30:44;4.47;;;2.90;;
42602;SDS011;28233;55.748;48.752;2023-02-14T06:32:48;5.63;;;2.67;;
42602;SDS011;28233;55.748;48.752;2023-02-14T06:34:51;5.15;;;2.75;;
42602;SDS011;28233;55.748;48.752;2023-02-14T06:36:54;7.15;;;3.13;;
42602;SDS011;28233;55.748;48.752;2023-02-14T06:38:57;3.70;;;2.90;;
42602;SDS011;28233;55.748;48.752;2023-02-14T06:41:03;7.60;;;3.70;;
42602;SDS011;28233;55.748;48.752;2023-02-14T06:43:07;9.02;;;3.05;;
42602;SDS011;28233;55.748;48.752;2023-02-14T06:45:10;7.43;;;3.42;;
42602;SDS011;28233;55.748;48.752;2023-02-14T06:47:13;6.40;;;3.58;;
42602;SDS011;28233;55.748;48.752;2023-02-14T06:49:16;5.40;;;3.05;;
42602;SDS011;28233;55.748;48.752;2023-02-14T06:51:18;6.90;;;3.92;;
42602;SDS011;28233;55.748;48.752;2023-02-14T06:53:21;9.00;;;3.55;;
42602;SDS011;28233;55.748;48.752;2023-02-14T06:55:24;5.63;;;3.63;;
42602;SDS011;28233;55.748;48.752;2023-02-14T06:57:27;6.50;;;3.65;;
42602;SDS011;28233;55.748;48.752;2023-02-14T06:59:31;5.82;;;3.30;;
42602;SDS011;28233;55.748;48.752;2023-02-14T07:01:33;4.93;;;3.55;;
42602;SDS011;28233;55.748;48.752;2023-02-14T07:03:36;6.40;;;3.50;;
42602;SDS011;28233;55.748;48.752;2023-02-14T07:05:39;5.65;;;3.55;;
42602;SDS011;28233;55.748;48.752;2023-02-14T07:07:41;5.72;;;3.47;;
42602;SDS011;28233;55.748;48.752;2023-02-14T07:09:44;7.50;;;3.65;;
42602;SDS011;28233;55.748;48.752;2023-02-14T07:11:47;7.88;;;3.28;;
42602;SDS011;28233;55.748;48.752;2023-02-14T07:13:49;5.05;;;3.53;;
42602;SDS011;28233;55.748;48.752;2023-02-14T07:15:52;6.28;;;4.25;;
42602;SDS011;28233;55.748;48.752;2023-02-14T07:17:55;7.13;;;3.38;;
42602;SDS011;28233;55.748;48.752;2023-02-14T07:19:57;8.27;;;4.35;;
42602;SDS011;28233;55.748;48.752;2023-02-14T07:22:00;7.15;;;3.78;;
42602;SDS011;28233;55.748;48.752;2023-02-14T07:24:03;7.07;;;3.33;;
42602;SDS011;28233;55.748;48.752;2023-02-14T07:26:06;10.93;;;3.85;;
42602;SDS011;28233;55.748;48.752;2023-02-14T07:28:08;6.80;;;4.30;;
42602;SDS011;28233;55.748;48.752;2023-02-14T07:30:11;6.88;;;4.50;;
42602;SDS011;28233;55.748;48.752;2023-02-14T07:32:15;5.65;;;3.38;;
42602;SDS011;28233;55.748;48.752;2023-02-14T07:34:19;6.85;;;3.75;;
42602;SDS011;28233;55.748;48.752;2023-02-14T07:36:22;9.32;;;3.90;;
42602;SDS011;28233;55.748;48.752;2023-02-14T07:38:24;8.00;;;3.85;;
42602;SDS011;28233;55.748;48.752;2023-02-14T07:40:27;6.03;;;3.90;;
42602;SDS011;28233;55.748;48.752;2023-02-14T07:42:31;7.70;;;3.60;;
42602;SDS011;28233;55.748;48.752;2023-02-14T07:44:33;4.93;;;3.72;;
42602;SDS011;28233;55.748;48.752;2023-02-14T07:46:36;7.55;;;3.83;;
42602;SDS011;28233;55.748;48.752;2023-02-14T07:48:39;8.93;;;4.20;;
42602;SDS011;28233;55.748;48.752;2023-02-14T07:50:41;6.80;;;4.47;;
42602;SDS011;28233;55.748;48.752;2023-02-14T07:52:44;8.25;;;4.10;;
42602;SDS011;28233;55.748;48.752;2023-02-14T07:54:47;6.40;;;3.83;;
42602;SDS011;28233;55.748;48.752;2023-02-14T07:56:50;7.05;;;3.85;;
42602;SDS011;28233;55.748;48.752;2023-02-14T07:58:52;5.95;;;3.28;;
42602;SDS011;28233;55.748;48.752;2023-02-14T08:00:55;7.75;;;4.10;;
42602;SDS011;28233;55.748;48.752;2023-02-14T08:02:59;8.35;;;4.00;;
42602;SDS011;28233;55.748;48.752;2023-02-14T08:05:01;6.53;;;3.63;;
42602;SDS011;28233;55.748;48.752;2023-02-14T08:07:04;7.18;;;3.92;;
42602;SDS011;28233;55.748;48.752;2023-02-14T08:09:08;8.20;;;3.78;;
42602;SDS011;28233;55.748;48.752;2023-02-14T08:11:11;8.32;;;3.67;;
42602;SDS011;28233;55.748;48.752;2023-02-14T08:13:34;5.72;;;3.85;;
42602;SDS011;28233;55.748;48.752;2023-02-14T08:15:37;8.38;;;3.78;;
42602;SDS011;28233;55.748;48.752;2023-02-14T08:17:58;6.47;;;3.55;;
42602;SDS011;28233;55.748;48.752;2023-02-14T08:20:01;5.97;;;3.13;;
42602;SDS011;28233;55.748;48.752;2023-02-14T08:22:04;6.10;;;4.18;;
42602;SDS011;28233;55.748;48.752;2023-02-14T08:24:08;7.90;;;3.63;;
42602;SDS011;28233;55.748;48.752;2023-02-14T08:26:10;7.45;;;3.95;;
42602;SDS011;28233;55.748;48.752;2023-02-14T08:28:13;5.80;;;3.35;;
42602;SDS011;28233;55.748;48.752;2023-02-14T08:30:16;7.35;;;3.80;;
42602;SDS011;28233;55.748;48.752;2023-02-14T08:32:19;4.45;;;2.97;;
42602;SDS011;28233;55.748;48.752;2023-02-14T08:34:22;8.25;;;3.13;;
42602;SDS011;28233;55.748;48.752;2023-02-14T08:36:25;4.97;;;3.13;;
42602;SDS011;28233;55.748;48.752;2023-02-14T08:38:28;6.35;;;4.18;;
42602;SDS011;28233;55.748;48.752;2023-02-14T08:40:31;8.20;;;3.63;;
42602;SDS011;28233;55.748;48.752;2023-02-14T08:42:36;6.10;;;3.55;;
42602;SDS011;28233;55.748;48.752;2023-02-14T08:44:38;5.32;;;3.03;;
42602;SDS011;28233;55.748;48.752;2023-02-14T08:46:41;6.53;;;3.72;;
42602;SDS011;28233;55.748;48.752;2023-02-14T08:48:44;6.03;;;3.85;;
42602;SDS011;28233;55.748;48.752;2023-02-14T08:50:47;7.38;;;2.97;;
42602;SDS011;28233;55.748;48.752;2023-02-14T08:52:51;4.25;;;2.50;;
42602;SDS011;28233;55.748;48.752;2023-02-14T08:54:53;5.85;;;3.30;;
42602;SDS011;28233;55.748;48.752;2023-02-14T08:56:56;5.25;;;3.03;;
42602;SDS011;28233;55.748;48.752;2023-02-14T08:58:59;5.32;;;2.78;;
42602;SDS011;28233;55.748;48.752;2023-02-14T09:01:24;3.83;;;2.70;;
42602;SDS011;28233;55.748;48.752;2023-02-14T09:03:25;4.72;;;3.00;;
42602;SDS011;28233;55.748;48.752;2023-02-14T09:05:28;5.13;;;2.95;;
42602;SDS011;28233;55.748;48.752;2023-02-14T09:07:30;5.38;;;3.08;;
42602;SDS011;28233;55.748;48.752;2023-02-14T09:09:33;7.05;;;3.80;;
42602;SDS011;28233;55.748;48.752;2023-02-14T09:11:36;5.45;;;2.92;;
42602;SDS011;28233;55.748;48.752;2023-02-14T09:13:39;7.10;;;3.20;;
42602;SDS011;28233;55.748;48.752;2023-02-14T09:15:43;5.00;;;3.00;;
42602;SDS011;28233;55.748;48.752;2023-02-14T09:17:46;6.18;;;2.80;;
42602;SDS011;28233;55.748;48.752;2023-02-14T09:19:49;3.20;;;2.10;;
42602;SDS011;28233;55.748;48.752;2023-02-14T09:21:51;5.25;;;2.97;;
42602;SDS011;28233;55.748;48.752;2023-02-14T09:23:54;4.50;;;2.70;;
42602;SDS011;28233;55.748;48.752;2023-02-14T09:26:03;5.68;;;3.15;;
42602;SDS011;28233;55.748;48.752;2023-02-14T09:28:09;6.43;;;2.83;;
42602;SDS011;28233;55.748;48.752;2023-02-14T09:30:12;3.83;;;2.88;;
42602;SDS011;28233;55.748;48.752;2023-02-14T09:32:15;6.45;;;3.20;;
42602;SDS011;28233;55.748;48.752;2023-02-14T09:34:18;5.47;;;2.63;;
42602;SDS011;28233;55.748;48.752;2023-02-14T09:36:39;3.67;;;2.30;;
42602;SDS011;28233;55.748;48.752;2023-02-14T09:38:42;4.78;;;2.85;;
42602;SDS011;28233;55.748;48.752;2023-02-14T09:40:45;4.35;;;2.92;;
42602;SDS011;28233;55.748;48.752;2023-02-14T09:44:53;7.68;;;3.72;;
42602;SDS011;28233;55.748;48.752;2023-02-14T09:49:24;4.50;;;3.20;;
42602;SDS011;28233;55.748;48.752;2023-02-14T09:51:34;5.93;;;3.55;;
42602;SDS011;28233;55.748;48.752;2023-02-14T09:53:53;4.25;;;3.20;;
42602;SDS011;28233;55.748;48.752;2023-02-14T09:56:06;6.40;;;3.08;;
42602;SDS011;28233;55.748;48.752;2023-02-14T09:58:15;5.80;;;3.33;;
42602;SDS011;28233;55.748;48.752;2023-02-14T10:05:40;6.72;;;4.70;;
42602;SDS011;28233;55.748;48.752;2023-02-14T10:07:56;9.80;;;5.93;;
42602;SDS011;28233;55.748;48.752;2023-02-14T10:12:28;8.80;;;5.28;;
42602;SDS011;28233;55.748;48.752;2023-02-14T10:14:36;8.95;;;5.80;;
42602;SDS011;28233;55.748;48.752;2023-02-14T10:16:46;7.97;;;5.70;;
42602;SDS011;28233;55.748;48.752;2023-02-14T10:19:37;8.90;;;6.00;;
42602;SDS011;28233;55.748;48.752;2023-02-14T10:21:33;11.38;;;6.13;;
42602;SDS011;28233;55.748;48.752;2023-02-14T10:23:44;9.95;;;5.45;;
42602;SDS011;28233;55.748;48.752;2023-02-14T10:26:03;8.90;;;5.30;;
42602;SDS011;28233;55.748;48.752;2023-02-14T10:28:08;11.27;;;5.78;;
42602;SDS011;28233;55.748;48.752;2023-02-14T10:30:14;9.43;;;5.70;;
42602;SDS011;28233;55.748;48.752;2023-02-14T10:33:24;10.18;;;5.88;;
42602;SDS011;28233;55.748;48.752;2023-02-14T10:44:20;16.65;;;7.82;;
42602;SDS011;28233;55.748;48.752;2023-02-14T10:52:18;15.05;;;8.00;;
42602;SDS011;28233;55.748;48.752;2023-02-14T10:54:38;12.77;;;7.55;;
42602;SDS011;28233;55.748;48.752;2023-02-14T10:59:01;12.05;;;7.18;;
42602;SDS011;28233;55.748;48.752;2023-02-14T11:01:17;12.07;;;7.35;;
42602;SDS011;28233;55.748;48.752;2023-02-14T11:03:21;9.50;;;6.05;;
42602;SDS011;28233;55.748;48.752;2023-02-14T11:05:26;10.50;;;6.38;;
42602;SDS011;28233;55.748;48.752;2023-02-14T11:07:41;10.13;;;6.18;;
42602;SDS011;28233;55.748;48.752;2023-02-14T11:09:46;10.32;;;6.75;;
42602;SDS011;28233;55.748;48.752;2023-02-14T11:11:54;11.63;;;6.68;;
42602;SDS011;28233;55.748;48.752;2023-02-14T11:14:17;12.30;;;6.25;;
42602;SDS011;28233;55.748;48.752;2023-02-14T11:16:31;10.02;;;6.47;;
42602;SDS011;28233;55.748;48.752;2023-02-14T11:18:40;13.07;;;6.05;;
42602;SDS011;28233;55.748;48.752;2023-02-14T11:20:43;10.90;;;6.95;;
42602;SDS011;28233;55.748;48.752;2023-02-14T11:23:04;12.25;;;6.90;;
42602;SDS011;28233;55.748;48.752;2023-02-14T11:25:24;10.70;;;6.75;;
42602;SDS011;28233;55.748;48.752;2023-02-14T11:27:31;10.85;;;6.20;;
42602;SDS011;28233;55.748;48.752;2023-02-14T11:29:35;9.43;;;6.13;;
42602;SDS011;28233;55.748;48.752;2023-02-14T11:31:46;12.82;;;6.97;;
42602;SDS011;28233;55.748;48.752;2023-02-14T11:33:49;13.60;;;6.25;;
42602;SDS011;28233;55.748;48.752;2023-02-14T11:35:52;10.82;;;6.45;;
42602;SDS011;28233;55.748;48.752;2023-02-14T11:37:55;9.52;;;5.93;;
42602;SDS011;28233;55.748;48.752;2023-02-14T11:39:59;11.50;;;6.55;;
42602;SDS011;28233;55.748;48.752;2023-02-14T11:42:04;10.00;;;5.60;;
42602;SDS011;28233;55.748;48.752;2023-02-14T11:44:16;10.82;;;5.35;;
42602;SDS011;28233;55.748;48.752;2023-02-14T11:46:25;11.00;;;6.50;;
42602;SDS011;28233;55.748;48.752;2023-02-14T11:48:29;10.18;;;6.20;;
42602;SDS011;28233;55.748;48.752;2023-02-14T11:50:39;13.13;;;6.78;;
42602;SDS011;28233;55.748;48.752;2023-02-14T11:52:48;12.60;;;7.03;;
42602;SDS011;28233;55.748;48.752;2023-02-14T11:54:56;11.85;;;6.95;;
42602;SDS011;28233;55.748;48.752;2023-02-14T11:57:04;8.90;;;5.57;;
42602;SDS011;28233;55.748;48.752;2023-02-14T11:59:30;12.00;;;6.82;;
42602;SDS011;28233;55.748;48.752;2023-02-14T12:01:37;12.55;;;7.70;;
42602;SDS011;28233;55.748;48.752;2023-02-14T12:03:43;10.82;;;5.97;;
42602;SDS011;28233;55.748;48.752;2023-02-14T12:05:49;11.80;;;7.25;;
42602;SDS011;28233;55.748;48.752;2023-02-14T12:08:02;11.60;;;7.28;;
42602;SDS011;28233;55.748;48.752;2023-02-14T12:12:16;11.65;;;7.10;;
42602;SDS011;28233;55.748;48.752;2023-02-14T12:14:29;12.63;;;7.55;;
42602;SDS011;28233;55.748;48.752;2023-02-14T12:16:34;10.73;;;6.93;;
42602;SDS011;28233;55.748;48.752;2023-02-14T12:25:39;9.90;;;6.63;;
42602;SDS011;28233;55.748;48.752;2023-02-14T12:28:05;14.60;;;8.18;;
42602;SDS011;28233;55.748;48.752;2023-02-14T12:30:16;14.20;;;8.55;;
42602;SDS011;28233;55.748;48.752;2023-02-14T12:32:23;16.63;;;8.68;;
42602;SDS011;28233;55.748;48.752;2023-02-14T12:34:28;15.77;;;8.57;;
42602;SDS011;28233;55.748;48.752;2023-02-14T12:36:39;16.63;;;9.05;;
42602;SDS011;28233;55.748;48.752;2023-02-14T12:51:02;19.40;;;10.82;;
42602;SDS011;28233;55.748;48.752;2023-02-14T13:00:21;16.85;;;9.77;;
42602;SDS011;28233;55.748;48.752;2023-02-14T13:07:54;17.63;;;9.73;;
42602;SDS011;28233;55.748;48.752;2023-02-14T13:12:46;24.73;;;11.25;;
42602;SDS011;28233;55.748;48.752;2023-02-14T13:15:14;16.33;;;10.13;;
42602;SDS011;28233;55.748;48.752;2023-02-14T13:22:15;17.13;;;10.02;;
42602;SDS011;28233;55.748;48.752;2023-02-14T13:24:23;17.17;;;10.15;;
42602;SDS011;28233;55.748;48.752;2023-02-14T13:26:30;23.48;;;11.20;;
42602;SDS011;28233;55.748;48.752;2023-02-14T13:28:36;17.90;;;10.00;;
42602;SDS011;28233;55.748;48.752;2023-02-14T13:30:42;19.27;;;10.53;;
42602;SDS011;28233;55.748;48.752;2023-02-14T13:32:46;21.13;;;10.90;;
42602;SDS011;28233;55.748;48.752;2023-02-14T13:34:51;17.43;;;10.03;;
42602;SDS011;28233;55.748;48.752;2023-02-14T13:36:56;23.13;;;12.13;;
42602;SDS011;28233;55.748;48.752;2023-02-14T13:39:00;17.27;;;10.70;;
42602;SDS011;28233;55.748;48.752;2023-02-14T13:41:04;21.70;;;10.43;;
42602;SDS011;28233;55.748;48.752;2023-02-14T13:43:09;17.87;;;10.40;;
42602;SDS011;28233;55.748;48.752;2023-02-14T13:47:41;20.43;;;11.10;;
42602;SDS011;28233;55.748;48.752;2023-02-14T13:49:52;22.60;;;10.40;;
42602;SDS011;28233;55.748;48.752;2023-02-14T13:51:59;20.33;;;10.27;;
42602;SDS011;28233;55.748;48.752;2023-02-14T13:54:18;30.90;;;12.33;;
42602;SDS011;28233;55.748;48.752;2023-02-14T13:56:33;20.07;;;10.50;;
42602;SDS011;28233;55.748;48.752;2023-02-14T14:00:54;19.57;;;10.03;;
42602;SDS011;28233;55.748;48.752;2023-02-14T14:02:57;28.57;;;11.80;;
42602;SDS011;28233;55.748;48.752;2023-02-14T14:05:00;21.47;;;10.37;;
42602;SDS011;28233;55.748;48.752;2023-02-14T14:07:31;19.65;;;11.00;;
42602;SDS011;28233;55.748;48.752;2023-02-14T14:13:56;17.13;;;10.97;;
42602;SDS011;28233;55.748;48.752;2023-02-14T14:18:30;24.67;;;11.83;;
42602;SDS011;28233;55.748;48.752;2023-02-14T14:20:43;19.60;;;11.17;;
42602;SDS011;28233;55.748;48.752;2023-02-14T14:22:53;17.33;;;10.57;;
42602;SDS011;28233;55.748;48.752;2023-02-14T14:25:00;49.60;;;16.63;;
42602;SDS011;28233;55.748;48.752;2023-02-14T14:31:49;20.30;;;10.43;;
42602;SDS011;28233;55.748;48.752;2023-02-14T14:33:58;18.07;;;10.27;;
42602;SDS011;28233;55.748;48.752;2023-02-14T14:36:04;26.03;;;11.17;;
42602;SDS011;28233;55.748;48.752;2023-02-14T14:38:11;16.57;;;9.70;;
42602;SDS011;28233;55.748;48.752;2023-02-14T14:40:24;86.30;;;18.13;;